Aviation Digital Data Service (ADDS)

Output produced by METARs form (0715 UTC 20 March 2019)
found at http://www.aviationweather.gov/metar/data/
 
Forecast for: VLSK (SAVANNAKHET(CV/M, LA)
Text: TAF VLSK 200500Z 2006/2106 27004KT 7000 SCT020 SCT100
Forecast period: 0600 UTC 20 March 2019 to 0600 UTC 21 March 2019
Forecast type: FROM: standard forecast or significant change
Winds: from the W (270 degrees) at 5 MPH (4 knots; 2.1 m/s)
Visibility: 4 miles (7 km)
Ceiling: at least 12,000 feet AGL
Clouds: scattered clouds at 2000 feet AGL
scattered clouds at 10000 feet AGL
Weather: no significant weather forecast for this period
Text: TEMPO 2014/2020 3000 BR FEW040 SCT100
Forecast period: 1400 to 2000 UTC 20 March 2019
Forecast type: TEMPORARY: The following changes expected for less than half the time period
Visibility: 1.86 miles (2.99 km)
Ceiling: at least 12,000 feet AGL
Clouds: few clouds at 4000 feet AGL
scattered clouds at 10000 feet AGL
Weather: BR  (mist)